Time;durP1;ratioP1;P1;durP2;ratioP2;P2;SDS_P1;SDS_P2;PMS_P1;PMS_P2;Temp;Humidity;BMP_temperature;BMP_pressure;BME280_temperature;BME280_humidity;BME280_pressure;Samples;Min_cycle;Max_cycle;Signal;HPM_P1;HPM_P2
2023/11/07 00:02:23;;;;;;;68.90;13.38;;;12.80;92.70;;;;;;5052461;28;20063;-52
2023/11/07 00:04:51;;;;;;;51.28;11.45;;;12.80;93.00;;;;;;5069366;28;20028;-52
2023/11/07 00:07:17;;;;;;;74.97;12.73;;;12.70;92.70;;;;;;5087158;28;20048;-52
2023/11/07 00:09:42;;;;;;;78.28;11.93;;;12.70;92.70;;;;;;5069189;28;20036;-52
2023/11/07 00:12:08;;;;;;;68.25;11.00;;;12.70;92.80;;;;;;5052496;28;20029;-52
2023/11/07 00:14:33;;;;;;;74.28;12.90;;;12.70;92.80;;;;;;5052534;28;20036;-52
2023/11/07 00:16:59;;;;;;;63.75;10.85;;;12.60;92.70;;;;;;5087049;28;20050;-52
2023/11/07 00:19:24;;;;;;;62.67;10.23;;;12.60;92.80;;;;;;5068759;28;20033;-52
2023/11/07 00:21:50;;;;;;;58.30;11.77;;;12.60;92.80;;;;;;5068747;28;20046;-52
2023/11/07 00:24:16;;;;;;;59.42;9.90;;;12.60;92.80;;;;;;5086824;28;20071;-52
2023/11/07 00:26:41;;;;;;;61.95;11.43;;;12.60;92.80;;;;;;5052073;28;20028;-52
2023/11/07 00:29:11;;;;;;;56.55;10.70;;;12.60;92.90;;;;;;5068827;28;20020;-52
2023/11/07 00:31:36;;;;;;;48.50;9.25;;;12.50;92.90;;;;;;5069278;28;20067;-52
2023/11/07 00:34:02;;;;;;;50.38;9.65;;;12.50;92.90;;;;;;5035543;28;20032;-52
2023/11/07 00:36:28;;;;;;;55.25;9.63;;;12.50;92.90;;;;;;5068812;28;20032;-52
2023/11/07 00:38:53;;;;;;;52.88;9.45;;;12.50;92.90;;;;;;5052018;28;20036;-52
2023/11/07 00:41:19;;;;;;;51.05;9.10;;;12.40;92.90;;;;;;5068595;28;20020;-52
2023/11/07 00:43:45;;;;;;;54.85;8.35;;;12.40;93.20;;;;;;5068699;28;20491;-52
2023/11/07 00:46:10;;;;;;;46.22;9.48;;;12.40;93.00;;;;;;5086174;28;20141;-53
2023/11/07 00:48:36;;;;;;;49.63;8.50;;;12.40;93.00;;;;;;5068570;28;20039;-52
2023/11/07 00:51:02;;;;;;;46.97;8.93;;;12.40;93.00;;;;;;5068632;28;20029;-52
2023/11/07 00:53:27;;;;;;;43.15;7.85;;;12.40;93.00;;;;;;5086576;28;20032;-52
2023/11/07 00:55:53;;;;;;;46.10;8.30;;;12.40;93.10;;;;;;5068597;28;20032;-52
2023/11/07 00:58:20;;;;;;;37.28;7.78;;;12.30;93.00;;;;;;5068249;28;20031;-52
2023/11/07 01:00:46;;;;;;;47.35;7.60;;;12.30;93.00;;;;;;5086414;28;20028;-52
2023/11/07 01:03:12;;;;;;;35.30;6.97;;;12.30;93.00;;;;;;5068442;28;20025;-52
2023/11/07 01:05:38;;;;;;;47.13;8.02;;;12.30;93.00;;;;;;5068301;28;20036;-52
2023/11/07 01:08:04;;;;;;;33.00;6.82;;;12.30;93.10;;;;;;5068284;28;20039;-52
2023/11/07 01:10:29;;;;;;;45.40;7.10;;;12.30;93.10;;;;;;5068448;28;20035;-52
2023/11/07 01:12:55;;;;;;;32.67;7.68;;;12.30;93.10;;;;;;5086253;28;20028;-52
2023/11/07 01:15:21;;;;;;;30.48;6.90;;;12.30;93.20;;;;;;5086209;28;20082;-52
2023/11/07 01:17:47;;;;;;;37.08;6.93;;;12.20;93.10;;;;;;5051532;28;20488;-53
2023/11/07 01:20:13;;;;;;;29.15;6.22;;;12.20;93.20;;;;;;5068172;28;20043;-52
2023/11/07 01:22:38;;;;;;;32.22;6.25;;;12.20;93.50;;;;;;5086033;28;20033;-52
2023/11/07 01:25:05;;;;;;;28.92;6.15;;;12.20;93.20;;;;;;5086172;28;20021;-52
2023/11/07 01:27:31;;;;;;;36.53;6.18;;;12.20;93.30;;;;;;5068264;28;20033;-52
2023/11/07 01:29:56;;;;;;;29.58;6.03;;;12.20;93.30;;;;;;5086147;28;20457;-52
2023/11/07 01:32:22;;;;;;;28.55;6.53;;;12.20;93.30;;;;;;5067987;28;20043;-52
2023/11/07 01:34:48;;;;;;;33.22;5.60;;;12.10;93.30;;;;;;5069679;28;20025;-52
2023/11/07 01:37:13;;;;;;;26.95;5.90;;;12.20;93.30;;;;;;5047895;28;20127;-52
2023/11/07 01:39:39;;;;;;;31.23;5.53;;;12.10;93.30;;;;;;5047894;28;20029;-52
2023/11/07 01:42:05;;;;;;;23.25;5.85;;;12.10;93.40;;;;;;5065936;28;20075;-52
2023/11/07 01:44:30;;;;;;;27.30;5.43;;;12.10;93.40;;;;;;5064833;28;20033;-52
2023/11/07 01:46:56;;;;;;;21.20;5.43;;;12.10;93.40;;;;;;5048058;28;20026;-52
2023/11/07 01:49:23;;;;;;;23.33;5.80;;;12.00;93.40;;;;;;5047961;28;20033;-52
2023/11/07 01:51:49;;;;;;;27.27;4.85;;;12.10;93.40;;;;;;5047863;28;20067;-52
2023/11/07 01:54:14;;;;;;;26.23;5.00;;;12.00;93.50;;;;;;5031493;28;20028;-52
2023/11/07 01:56:40;;;;;;;23.27;4.70;;;12.00;93.50;;;;;;5048405;28;20389;-52
2023/11/07 01:59:05;;;;;;;19.85;4.85;;;12.00;93.50;;;;;;5068190;28;20036;-52
2023/11/07 02:01:31;;;;;;;16.40;4.43;;;12.00;93.50;;;;;;5068382;28;20021;-52
2023/11/07 02:03:57;;;;;;;20.80;4.22;;;12.00;93.50;;;;;;5068378;28;20040;-52
2023/11/07 02:06:23;;;;;;;22.02;4.57;;;12.00;93.50;;;;;;5068140;28;20024;-52
2023/11/07 02:08:48;;;;;;;17.02;4.35;;;12.00;93.60;;;;;;5051680;28;20021;-52
2023/11/07 02:11:14;;;;;;;19.08;4.22;;;12.00;93.60;;;;;;5034903;28;20025;-52
2023/11/07 02:13:39;;;;;;;26.85;4.63;;;12.00;93.60;;;;;;5069615;28;20039;-52
2023/11/07 02:16:06;;;;;;;21.80;3.95;;;12.00;93.70;;;;;;5069309;28;20033;-52
2023/11/07 02:18:31;;;;;;;21.10;4.55;;;12.00;93.70;;;;;;5051665;28;20044;-52
2023/11/07 02:20:57;;;;;;;25.30;4.60;;;12.00;93.70;;;;;;5052275;28;20033;-52
2023/11/07 02:23:29;;;;;;;20.80;4.47;;;12.00;93.70;;;;;;5067931;28;20029;-52
2023/11/07 02:25:55;;;;;;;26.83;4.63;;;11.90;93.60;;;;;;5067758;28;20014;-52
2023/11/07 02:28:20;;;;;;;16.65;3.60;;;12.00;93.60;;;;;;5067841;28;20033;-52
2023/11/07 02:30:46;;;;;;;20.52;3.83;;;11.90;93.90;;;;;;5067789;28;20495;-52
2023/11/07 02:33:14;;;;;;;19.48;4.32;;;12.00;93.70;;;;;;5067697;28;20052;-52
2023/11/07 02:35:41;;;;;;;14.45;3.92;;;11.90;93.70;;;;;;5051060;28;20053;-52
2023/11/07 02:38:07;;;;;;;15.55;3.65;;;11.90;93.70;;;;;;5067529;28;20037;-52
2023/11/07 02:40:32;;;;;;;14.55;3.60;;;11.90;93.70;;;;;;5050845;28;20049;-53
2023/11/07 02:43:00;;;;;;;19.23;3.85;;;11.90;93.80;;;;;;5067672;28;20032;-52
2023/11/07 02:45:25;;;;;;;14.35;3.30;;;11.90;93.80;;;;;;5067405;28;20032;-52
2023/11/07 02:47:51;;;;;;;12.55;3.33;;;11.90;93.80;;;;;;5067307;28;20093;-52
2023/11/07 02:50:17;;;;;;;12.02;3.45;;;11.90;93.90;;;;;;5067453;28;20036;-52
2023/11/07 02:52:43;;;;;;;13.90;3.38;;;11.80;93.90;;;;;;5067026;28;20044;-52
2023/11/07 02:55:08;;;;;;;14.63;3.50;;;11.90;93.90;;;;;;5067259;28;20029;-53
2023/11/07 02:57:34;;;;;;;14.50;3.53;;;11.90;93.90;;;;;;5050693;28;20033;-52
2023/11/07 03:00:00;;;;;;;16.63;3.17;;;11.80;93.90;;;;;;5067169;28;20032;-52
2023/11/07 03:02:26;;;;;;;20.52;3.50;;;11.80;94.00;;;;;;5050490;28;20033;-52
2023/11/07 03:04:54;;;;;;;13.98;2.95;;;11.80;94.00;;;;;;5050552;28;20028;-52
2023/11/07 03:07:20;;;;;;;10.63;2.88;;;11.80;94.00;;;;;;5068208;28;20420;-52
2023/11/07 03:09:45;;;;;;;18.35;3.33;;;11.80;94.00;;;;;;5066808;28;20028;-52
2023/11/07 03:12:12;;;;;;;12.15;2.63;;;11.80;94.00;;;;;;5068099;28;20029;-52
2023/11/07 03:14:42;;;;;;;14.10;2.83;;;11.80;94.10;;;;;;5066928;28;20032;-52
2023/11/07 03:17:08;;;;;;;8.77;3.03;;;11.80;94.10;;;;;;5066884;28;20033;-52
2023/11/07 03:19:34;;;;;;;15.27;3.08;;;11.90;94.10;;;;;;5066933;28;20029;-52
2023/11/07 03:21:59;;;;;;;10.95;2.85;;;11.80;94.20;;;;;;5067970;28;20029;-52
2023/11/07 03:24:25;;;;;;;10.10;2.60;;;11.80;94.20;;;;;;5050264;28;20389;-52
2023/11/07 03:26:50;;;;;;;17.88;2.80;;;11.80;94.10;;;;;;5067959;28;20025;-52
2023/11/07 03:29:16;;;;;;;9.15;2.88;;;11.80;94.20;;;;;;5066603;28;20029;-52
2023/11/07 03:31:43;;;;;;;8.07;2.70;;;11.80;94.20;;;;;;5067779;28;20036;-52
2023/11/07 03:34:09;;;;;;;16.98;3.20;;;11.80;94.50;;;;;;5066611;28;20025;-53
2023/11/07 03:36:35;;;;;;;10.82;2.65;;;11.80;94.20;;;;;;5067576;28;20470;-52
2023/11/07 03:39:01;;;;;;;7.00;2.42;;;11.80;94.20;;;;;;5067599;28;20036;-52
2023/11/07 03:41:26;;;;;;;10.45;2.78;;;11.80;94.20;;;;;;5067675;28;20021;-52
2023/11/07 03:43:52;;;;;;;9.60;2.20;;;11.70;94.20;;;;;;5049798;28;20095;-52
2023/11/07 03:46:17;;;;;;;7.00;2.50;;;11.80;94.20;;;;;;5067454;28;20088;-52
2023/11/07 03:48:44;;;;;;;10.52;2.38;;;11.80;94.20;;;;;;5066269;28;20036;-52
2023/11/07 03:51:09;;;;;;;8.00;2.10;;;11.80;94.20;;;;;;5067389;28;20066;-56
2023/11/07 03:53:35;;;;;;;6.47;2.42;;;11.70;94.10;;;;;;5067526;28;20092;-56
2023/11/07 03:56:00;;;;;;;8.82;2.30;;;11.70;94.10;;;;;;5032787;28;20025;-56
2023/11/07 03:58:28;;;;;;;9.82;2.65;;;11.70;94.10;;;;;;5066915;28;20505;-56
2023/11/07 04:00:54;;;;;;;10.20;2.05;;;11.80;94.10;;;;;;5067474;28;20017;-56
2023/11/07 04:03:22;;;;;;;7.40;2.05;;;11.80;94.10;;;;;;5067265;28;20411;-56
2023/11/07 04:05:47;;;;;;;8.77;2.58;;;11.70;94.10;;;;;;5065751;28;20503;-56
2023/11/07 04:08:13;;;;;;;6.47;1.80;;;11.80;94.10;;;;;;5065845;28;20037;-56
2023/11/07 04:10:38;;;;;;;7.60;2.13;;;11.70;94.10;;;;;;5067134;28;20103;-56
2023/11/07 04:13:05;;;;;;;7.85;2.38;;;11.70;94.10;;;;;;5049268;28;20079;-56
2023/11/07 04:15:31;;;;;;;5.05;1.70;;;11.70;94.10;;;;;;5065798;28;20021;-56
2023/11/07 04:17:57;;;;;;;8.85;2.25;;;11.70;94.10;;;;;;5065762;28;20025;-56
2023/11/07 04:20:23;;;;;;;5.45;1.95;;;11.70;94.10;;;;;;5065145;28;20052;-56
2023/11/07 04:22:48;;;;;;;7.57;2.08;;;11.70;94.10;;;;;;5065567;28;20029;-56
2023/11/07 04:25:15;;;;;;;6.55;1.90;;;11.70;94.10;;;;;;5066868;28;20029;-56
2023/11/07 04:27:42;;;;;;;7.53;1.75;;;11.70;94.10;;;;;;5048616;28;20029;-56
2023/11/07 04:30:09;;;;;;;7.65;2.38;;;11.70;94.10;;;;;;5048792;28;20017;-56
2023/11/07 04:32:34;;;;;;;4.72;1.75;;;11.60;94.10;;;;;;5049075;28;20033;-56
2023/11/07 04:35:01;;;;;;;6.40;1.80;;;11.70;94.00;;;;;;5066666;28;20079;-56
2023/11/07 04:37:27;;;;;;;3.53;1.73;;;11.60;94.00;;;;;;5065460;28;20033;-56
2023/11/07 04:39:52;;;;;;;4.45;1.65;;;11.60;94.00;;;;;;5048732;28;20039;-56
2023/11/07 04:42:18;;;;;;;6.93;1.90;;;11.60;93.90;;;;;;5066650;28;20089;-56
2023/11/07 04:44:44;;;;;;;8.48;1.80;;;11.60;94.00;;;;;;5048498;28;20028;-59
2023/11/07 04:47:10;;;;;;;5.22;1.67;;;11.60;93.90;;;;;;5048318;28;20025;-56
2023/11/07 04:49:35;;;;;;;4.40;1.50;;;11.60;93.90;;;;;;5048585;28;20039;-56
2023/11/07 04:52:02;;;;;;;7.20;1.60;;;11.60;93.90;;;;;;5048446;28;20041;-56
2023/11/07 04:54:27;;;;;;;5.13;1.52;;;11.60;93.90;;;;;;5067129;28;20017;-56
2023/11/07 04:56:54;;;;;;;5.93;1.77;;;11.60;93.90;;;;;;5069197;28;20044;-56
2023/11/07 04:59:23;;;;;;;7.53;1.80;;;11.60;93.90;;;;;;5065180;28;20401;-56
2023/11/07 05:01:49;;;;;;;14.32;2.80;;;11.60;93.90;;;;;;5064838;28;20025;-56
2023/11/07 05:04:15;;;;;;;7.72;2.50;;;11.70;93.90;;;;;;5048530;28;20051;-54
2023/11/07 05:06:41;;;;;;;7.60;1.83;;;11.60;93.90;;;;;;5048382;28;20044;-55
2023/11/07 05:09:09;;;;;;;12.10;2.03;;;11.60;93.90;;;;;;5031790;28;20025;-55
2023/11/07 05:11:40;;;;;;;7.95;2.05;;;11.60;93.90;;;;;;5066190;28;20056;-54
2023/11/07 05:14:09;;;;;;;10.52;2.53;;;11.60;93.80;;;;;;5064153;28;20032;-54
2023/11/07 05:16:38;;;;;;;23.35;2.88;;;11.60;93.80;;;;;;5068667;28;20498;-55
2023/11/07 05:19:04;;;;;;;12.27;2.78;;;11.60;93.80;;;;;;5050726;28;20039;-52
2023/11/07 05:21:30;;;;;;;14.02;2.47;;;11.60;93.80;;;;;;5085942;28;20124;-52
2023/11/07 05:23:56;;;;;;;16.15;2.10;;;11.50;93.80;;;;;;5068209;28;20028;-52
2023/11/07 05:26:22;;;;;;;10.30;2.72;;;11.60;93.80;;;;;;5085827;28;20017;-53
2023/11/07 05:28:49;;;;;;;14.10;2.95;;;11.50;93.80;;;;;;5068334;28;20036;-52
2023/11/07 05:31:14;;;;;;;9.68;2.45;;;11.60;93.80;;;;;;5051276;28;20063;-52
2023/11/07 05:33:41;;;;;;;10.23;2.50;;;11.50;93.80;;;;;;5090047;28;20025;-52
2023/11/07 05:36:07;;;;;;;13.00;2.30;;;11.50;93.80;;;;;;5072487;28;20025;-52
2023/11/07 05:38:33;;;;;;;5.88;1.88;;;11.50;93.80;;;;;;5090053;28;20037;-52
2023/11/07 05:40:59;;;;;;;13.60;2.83;;;11.50;93.80;;;;;;5071944;28;20028;-52
2023/11/07 05:43:25;;;;;;;13.55;2.33;;;11.50;93.90;;;;;;5038389;28;20036;-52
2023/11/07 05:45:51;;;;;;;7.88;1.98;;;11.50;93.90;;;;;;5089844;28;20477;-52
2023/11/07 05:48:17;;;;;;;12.45;2.35;;;11.50;93.90;;;;;;5071983;28;20112;-52
2023/11/07 05:50:42;;;;;;;13.63;2.65;;;11.50;93.90;;;;;;5055410;28;20052;-52
2023/11/07 05:53:08;;;;;;;8.30;2.35;;;11.50;93.90;;;;;;5071909;28;20052;-52
2023/11/07 05:55:34;;;;;;;10.35;2.17;;;11.40;93.80;;;;;;5090201;28;20029;-52
2023/11/07 05:57:59;;;;;;;11.55;2.08;;;11.40;93.80;;;;;;5089825;28;20028;-52
2023/11/07 06:00:25;;;;;;;14.35;2.33;;;11.40;93.90;;;;;;5089747;28;20035;-52
2023/11/07 06:02:51;;;;;;;7.28;1.63;;;11.40;93.90;;;;;;5090083;28;20036;-52
2023/11/07 06:05:16;;;;;;;10.55;2.00;;;11.40;93.90;;;;;;5089828;28;20028;-52
2023/11/07 06:07:42;;;;;;;11.35;2.25;;;11.40;94.00;;;;;;5090069;28;20039;-52
2023/11/07 06:10:08;;;;;;;10.73;2.38;;;11.40;93.90;;;;;;5071706;28;20096;-52
2023/11/07 06:12:33;;;;;;;6.72;1.67;;;11.40;93.90;;;;;;5089654;28;20033;-52
2023/11/07 06:14:59;;;;;;;9.05;2.00;;;11.30;94.00;;;;;;5071772;28;20033;-52
2023/11/07 06:17:24;;;;;;;5.30;1.58;;;11.40;94.00;;;;;;5071907;28;20021;-53
2023/11/07 06:19:50;;;;;;;9.88;1.90;;;11.30;94.00;;;;;;5090114;28;20039;-52
2023/11/07 06:22:15;;;;;;;7.30;1.70;;;11.30;94.00;;;;;;5089317;28;20032;-52
2023/11/07 06:24:42;;;;;;;4.90;1.38;;;11.30;94.00;;;;;;5070818;28;20032;-52
2023/11/07 06:27:07;;;;;;;7.55;1.73;;;11.30;94.00;;;;;;5088698;28;20031;-52
2023/11/07 06:29:33;;;;;;;11.10;2.00;;;11.20;94.00;;;;;;5089068;28;20028;-52
2023/11/07 06:31:59;;;;;;;3.75;1.40;;;11.20;94.10;;;;;;5089281;28;20187;-52
2023/11/07 06:34:24;;;;;;;6.75;1.85;;;11.20;94.00;;;;;;5089209;28;20025;-52
2023/11/07 06:36:50;;;;;;;4.82;1.90;;;11.30;94.10;;;;;;5088903;28;20087;-52
2023/11/07 06:39:18;;;;;;;8.73;1.52;;;11.30;94.10;;;;;;5088732;28;20032;-52
2023/11/07 06:41:43;;;;;;;6.47;1.80;;;11.20;94.10;;;;;;5070952;28;20028;-52
2023/11/07 06:44:09;;;;;;;7.57;1.80;;;11.20;94.00;;;;;;5088276;28;20380;-52
2023/11/07 06:46:35;;;;;;;5.53;1.67;;;11.30;94.00;;;;;;5088591;28;20442;-52
2023/11/07 06:49:01;;;;;;;4.50;1.52;;;11.20;93.90;;;;;;5070520;28;20029;-53
2023/11/07 06:51:27;;;;;;;7.38;1.67;;;11.30;93.90;;;;;;5088528;28;20028;-53
2023/11/07 06:53:53;;;;;;;4.60;1.50;;;11.20;93.80;;;;;;5088503;28;20085;-52
2023/11/07 06:56:19;;;;;;;5.93;1.30;;;11.20;93.90;;;;;;5086184;28;20496;-55
2023/11/07 06:58:45;;;;;;;4.63;1.60;;;11.30;93.90;;;;;;5088311;28;20046;-54
2023/11/07 07:01:13;;;;;;;3.25;1.50;;;11.20;93.80;;;;;;5087248;28;20104;-55
2023/11/07 07:03:39;;;;;;;5.50;1.75;;;11.30;93.90;;;;;;5088466;28;20082;-55
2023/11/07 07:06:05;;;;;;;3.88;1.35;;;11.30;93.90;;;;;;5070114;28;20111;-55
2023/11/07 07:08:31;;;;;;;6.55;1.67;;;11.20;93.80;;;;;;5088332;28;20031;-52
2023/11/07 07:10:57;;;;;;;6.63;1.55;;;11.20;93.80;;;;;;5070160;28;20067;-52
2023/11/07 07:13:24;;;;;;;10.15;1.80;;;11.30;93.80;;;;;;5088262;28;20056;-52
2023/11/07 07:15:50;;;;;;;9.82;1.65;;;11.20;93.80;;;;;;5088250;28;20047;-52
2023/11/07 07:18:18;;;;;;;6.50;1.63;;;11.20;93.80;;;;;;5069957;28;20024;-52
2023/11/07 07:20:47;;;;;;;13.25;1.60;;;11.20;93.70;;;;;;5088046;28;20469;-52
2023/11/07 07:23:12;;;;;;;40.72;3.83;;;11.30;93.70;;;;;;5088730;28;20121;-52
2023/11/07 07:25:38;;;;;;;17.83;2.17;;;11.30;93.70;;;;;;5070630;28;20056;-54
2023/11/07 07:28:07;;;;;;;11.00;2.22;;;11.40;93.70;;;;;;5088031;28;20063;-55
2023/11/07 07:30:33;;;;;;;14.43;2.10;;;11.30;93.60;;;;;;5087947;28;20055;-55
2023/11/07 07:32:59;;;;;;;7.85;1.90;;;11.30;93.60;;;;;;5088007;28;20041;-55
2023/11/07 07:35:29;;;;;;;17.70;2.67;;;11.30;93.60;;;;;;5087906;28;20032;-55
2023/11/07 07:37:54;;;;;;;12.70;2.20;;;11.30;93.50;;;;;;5087843;28;20037;-54
2023/11/07 07:40:29;;;;;;;7.80;1.77;;;11.30;93.50;;;;;;5087753;28;20094;-54
2023/11/07 07:43:08;;;;;;;8.57;1.58;;;11.30;93.50;;;;;;5087616;28;20024;-53
2023/11/07 07:45:35;;;;;;;17.90;2.08;;;11.40;93.60;;;;;;5087629;28;20042;-55
2023/11/07 07:48:04;;;;;;;18.80;2.80;;;11.40;93.60;;;;;;5087486;28;20028;-54
2023/11/07 07:50:30;;;;;;;9.07;2.08;;;11.40;93.70;;;;;;5087575;28;20076;-54
2023/11/07 07:52:58;;;;;;;12.95;3.20;;;11.40;93.70;;;;;;5087466;28;20040;-54
2023/11/07 07:55:27;;;;;;;53.88;4.93;;;11.40;93.70;;;;;;5086460;28;20020;-54
2023/11/07 07:57:53;;;;;;;21.25;3.13;;;11.40;93.70;;;;;;5087096;28;20043;-54
2023/11/07 08:00:24;;;;;;;25.30;3.45;;;11.40;93.80;;;;;;5086999;28;20020;-54
2023/11/07 08:02:51;;;;;;;17.85;2.97;;;11.40;93.80;;;;;;5086891;28;20024;-54
2023/11/07 08:05:17;;;;;;;23.77;3.50;;;11.40;93.80;;;;;;5090421;28;20028;-54
2023/11/07 08:07:44;;;;;;;23.08;3.15;;;11.40;93.90;;;;;;5069588;28;20096;-54
2023/11/07 08:10:16;;;;;;;39.83;4.80;;;11.40;93.90;;;;;;5088709;28;20029;-54
2023/11/07 08:12:45;;;;;;;51.58;5.68;;;11.40;94.00;;;;;;5094947;28;20040;-54
2023/11/07 08:15:11;;;;;;;34.08;4.35;;;11.40;94.10;;;;;;5093757;28;20032;-55
2023/11/07 08:17:37;;;;;;;38.17;4.75;;;11.50;94.10;;;;;;5095090;28;20491;-54
2023/11/07 08:20:04;;;;;;;46.83;5.57;;;11.50;94.10;;;;;;5092388;28;20040;-54
2023/11/07 08:22:30;;;;;;;123.07;14.25;;;11.50;94.00;;;;;;5088197;28;20035;-54
2023/11/07 08:24:55;;;;;;;81.80;9.18;;;11.50;94.10;;;;;;5097243;28;20024;-54
2023/11/07 08:27:22;;;;;;;53.78;6.32;;;11.60;94.10;;;;;;5076409;28;20025;-54
2023/11/07 08:29:48;;;;;;;149.10;14.30;;;11.60;94.10;;;;;;5074838;28;20032;-54
2023/11/07 08:32:14;;;;;;;58.67;6.65;;;11.60;94.00;;;;;;5089951;28;20353;-54
2023/11/07 08:34:42;;;;;;;78.53;9.80;;;11.60;94.00;;;;;;5094010;28;20049;-54
2023/11/07 08:37:10;;;;;;;73.75;8.07;;;11.70;94.00;;;;;;5093602;28;20055;-54
2023/11/07 08:39:36;;;;;;;80.18;8.90;;;11.70;94.00;;;;;;5078630;28;20082;-54
2023/11/07 08:42:04;;;;;;;75.20;8.80;;;11.70;94.20;;;;;;5091997;28;20024;-54
2023/11/07 08:44:29;;;;;;;66.25;6.82;;;11.80;94.20;;;;;;5093806;28;20031;-54
2023/11/07 08:46:55;;;;;;;54.03;6.40;;;11.80;94.10;;;;;;5101549;28;20024;-54
2023/11/07 08:49:21;;;;;;;59.50;6.60;;;11.80;94.00;;;;;;5091673;28;20056;-54
2023/11/07 08:51:51;;;;;;;148.35;14.27;;;11.80;94.00;;;;;;5088999;28;20025;-54
2023/11/07 08:54:18;;;;;;;104.65;12.48;;;11.90;93.90;;;;;;5094230;28;20096;-54
2023/11/07 08:56:48;;;;;;;82.18;9.02;;;11.90;93.90;;;;;;5093287;28;20094;-54
2023/11/07 08:59:17;;;;;;;46.33;6.85;;;11.90;93.80;;;;;;5092571;28;20047;-54
2023/11/07 09:01:43;;;;;;;59.90;6.35;;;12.00;93.70;;;;;;5075564;28;20029;-54
2023/11/07 09:04:09;;;;;;;77.35;8.90;;;12.00;93.70;;;;;;5092259;28;20023;-54
2023/11/07 09:06:39;;;;;;;72.13;7.65;;;12.00;93.60;;;;;;5092569;28;20036;-54
2023/11/07 09:09:07;;;;;;;83.63;8.70;;;12.00;93.50;;;;;;5092355;28;20035;-54
2023/11/07 09:11:33;;;;;;;62.13;7.40;;;12.00;93.40;;;;;;5099372;28;20032;-54
2023/11/07 09:13:59;;;;;;;51.15;7.05;;;12.10;93.40;;;;;;5077692;28;20035;-54
2023/11/07 09:16:25;;;;;;;46.70;6.65;;;12.10;93.30;;;;;;5073044;28;20021;-54
2023/11/07 09:18:50;;;;;;;65.18;8.30;;;12.10;93.20;;;;;;5050808;28;20437;-54
2023/11/07 09:21:16;;;;;;;85.32;8.48;;;12.10;93.10;;;;;;5074800;28;20143;-54
2023/11/07 09:23:42;;;;;;;98.95;11.85;;;12.20;93.00;;;;;;5066350;28;20033;-54
2023/11/07 09:26:09;;;;;;;102.90;12.65;;;12.20;93.00;;;;;;5094641;28;20031;-54
2023/11/07 09:28:34;;;;;;;125.78;14.63;;;12.20;93.00;;;;;;5057161;28;20024;-54
2023/11/07 09:31:00;;;;;;;144.73;17.10;;;12.30;92.90;;;;;;5088048;28;20016;-54
2023/11/07 09:33:26;;;;;;;268.13;25.98;;;12.30;92.90;;;;;;5070436;28;20041;-54
2023/11/07 09:35:52;;;;;;;132.63;16.27;;;12.30;92.90;;;;;;5053252;28;20025;-54
2023/11/07 09:38:18;;;;;;;87.47;10.60;;;12.30;92.80;;;;;;5070698;28;20539;-54
2023/11/07 09:40:44;;;;;;;95.95;10.50;;;12.30;92.70;;;;;;5078962;28;20039;-54
2023/11/07 09:43:12;;;;;;;74.22;8.15;;;12.40;92.60;;;;;;5050111;28;20025;-54
2023/11/07 09:45:38;;;;;;;78.20;8.65;;;12.40;92.50;;;;;;5048477;28;20028;-54
2023/11/07 09:48:09;;;;;;;125.90;15.57;;;12.40;92.40;;;;;;5061666;28;20033;-54
2023/11/07 09:50:39;;;;;;;104.68;14.32;;;12.40;92.40;;;;;;5082645;28;20135;-54
2023/11/07 09:53:07;;;;;;;112.88;13.88;;;12.40;92.50;;;;;;5068114;28;20060;-54
2023/11/07 09:55:33;;;;;;;103.13;11.85;;;12.50;92.50;;;;;;5066811;28;20039;-54
2023/11/07 09:58:09;;;;;;;85.15;11.80;;;12.90;92.50;;;;;;5077473;28;20028;-54
2023/11/07 10:00:35;;;;;;;;;;;12.50;92.30;;;;;;5065632;28;20481;-54
2023/11/07 10:03:01;;;;;;;89.93;12.05;;;12.60;92.40;;;;;;5066052;28;19921;-54
2023/11/07 10:05:27;;;;;;;94.07;9.50;;;12.60;92.30;;;;;;5065280;28;20080;-54
2023/11/07 10:07:53;;;;;;;83.20;9.38;;;12.50;92.30;;;;;;5067367;28;20104;-54
2023/11/07 10:10:19;;;;;;;104.63;11.45;;;12.50;92.20;;;;;;5084222;28;20035;-54
2023/11/07 10:12:45;;;;;;;86.10;9.48;;;12.50;92.10;;;;;;5084324;28;20060;-54
2023/11/07 10:15:17;;;;;;;68.75;9.75;;;12.50;92.10;;;;;;5084040;28;20059;-54
2023/11/07 10:18:06;;;;;;;68.53;7.85;;;12.60;92.00;;;;;;5076783;28;20041;-54
2023/11/07 10:20:32;;;;;;;52.17;7.95;;;12.60;91.90;;;;;;5072786;28;20032;-54
2023/11/07 10:22:58;;;;;;;101.05;11.70;;;12.60;91.90;;;;;;5069890;28;20029;-54
2023/11/07 10:25:34;;;;;;;81.55;10.18;;;12.60;92.00;;;;;;5076147;28;20131;-54
2023/11/07 10:28:07;;;;;;;52.60;6.30;;;12.60;91.90;;;;;;5088102;28;20060;-52
2023/11/07 10:30:41;;;;;;;53.22;6.38;;;12.70;91.80;;;;;;5062547;28;20080;-52
2023/11/07 10:33:11;;;;;;;63.53;8.52;;;12.60;91.70;;;;;;5073075;28;20439;-51
2023/11/07 10:36:01;;;;;;;94.05;10.88;;;12.70;91.80;;;;;;5082865;28;20020;-52
2023/11/07 10:38:29;;;;;;;77.97;9.85;;;12.60;91.70;;;;;;5068504;28;20029;-52
2023/11/07 10:40:54;;;;;;;41.53;5.53;;;12.70;91.50;;;;;;5068229;28;20021;-52
2023/11/07 10:43:39;;;;;;;68.47;8.77;;;12.70;91.60;;;;;;5078089;28;20036;-52
2023/11/07 10:46:09;;;;;;;54.78;7.10;;;12.80;91.60;;;;;;5088662;28;20511;-52
2023/11/07 10:48:38;;;;;;;37.85;5.50;;;12.80;91.40;;;;;;5057851;28;20507;-52
2023/11/07 10:51:05;;;;;;;35.70;5.53;;;12.80;91.30;;;;;;5070393;28;20016;-52
2023/11/07 10:53:34;;;;;;;43.95;5.13;;;12.90;91.20;;;;;;5080601;28;20025;-52
2023/11/07 10:55:59;;;;;;;83.25;10.88;;;12.80;91.00;;;;;;5075879;28;20039;-52
2023/11/07 10:58:31;;;;;;;59.45;7.90;;;12.90;91.10;;;;;;5087176;28;20104;-52
2023/11/07 11:00:59;;;;;;;82.63;8.73;;;12.90;91.10;;;;;;5050407;28;20033;-52
2023/11/07 11:03:25;;;;;;;51.63;7.45;;;12.90;91.10;;;;;;5053005;28;20092;-52
2023/11/07 11:05:50;;;;;;;70.20;9.27;;;12.90;90.90;;;;;;5052468;28;20519;-52
2023/11/07 11:08:16;;;;;;;68.22;8.65;;;12.90;90.80;;;;;;5069265;28;20037;-52
2023/11/07 11:10:42;;;;;;;44.65;7.03;;;13.00;90.80;;;;;;5063351;28;20024;-52
2023/11/07 11:13:14;;;;;;;60.15;6.65;;;13.00;90.70;;;;;;5049790;28;20037;-54
2023/11/07 11:15:40;;;;;;;57.40;6.90;;;13.00;90.60;;;;;;5049917;28;20333;-54
2023/11/07 11:18:08;;;;;;;74.05;8.98;;;13.00;90.60;;;;;;5085612;28;20120;-54
2023/11/07 11:20:52;;;;;;;65.57;7.82;;;13.00;90.50;;;;;;5068292;28;20532;-54
2023/11/07 11:23:30;;;;;;;71.13;9.82;;;13.10;90.50;;;;;;5051199;28;20071;-51
2023/11/07 11:26:20;;;;;;;79.13;10.82;;;13.10;90.50;;;;;;5065176;28;20025;-52
2023/11/07 11:28:46;;;;;;;116.63;13.27;;;13.10;90.50;;;;;;5053632;28;20025;-54
2023/11/07 11:31:18;;;;;;;93.53;9.48;;;13.20;90.50;;;;;;5101570;28;20039;-53
2023/11/07 11:33:45;;;;;;;86.00;10.60;;;13.20;90.50;;;;;;5053748;28;20047;-55
2023/11/07 11:36:33;;;;;;;86.03;10.25;;;13.20;90.40;;;;;;5086739;28;20029;-54
2023/11/07 11:38:59;;;;;;;87.15;10.93;;;13.20;90.40;;;;;;5048518;28;20078;-52
2023/11/07 11:41:55;;;;;;;79.88;8.73;;;13.30;90.50;;;;;;5081595;28;20017;-52
2023/11/07 11:44:22;;;;;;;93.38;12.98;;;13.30;90.40;;;;;;5065146;28;20365;-52
2023/11/07 11:46:47;;;;;;;110.53;13.80;;;13.30;90.40;;;;;;5078547;28;20042;-52
2023/11/07 11:49:16;;;;;;;70.28;10.00;;;13.30;90.40;;;;;;5077811;28;20044;-52
2023/11/07 11:51:42;;;;;;;137.93;14.23;;;13.40;90.40;;;;;;5068036;28;20068;-54
2023/11/07 11:54:09;;;;;;;119.68;14.23;;;13.40;90.50;;;;;;5068810;28;20036;-54
2023/11/07 11:56:50;;;;;;;82.45;11.13;;;13.40;90.40;;;;;;5067723;28;20020;-54
2023/11/07 11:59:16;;;;;;;60.58;7.72;;;13.40;90.40;;;;;;5079163;28;20532;-54
2023/11/07 12:01:50;;;;;;;71.53;9.07;;;13.40;90.40;;;;;;5078934;28;20025;-54
2023/11/07 12:04:48;;;;;;;76.82;10.07;;;13.50;90.30;;;;;;5078758;28;20059;-52
2023/11/07 12:07:14;;;;;;;74.45;11.07;;;13.40;90.10;;;;;;5066826;28;20063;-52
2023/11/07 12:09:44;;;;;;;55.10;8.38;;;13.50;90.20;;;;;;5080515;28;20029;-52
2023/11/07 12:12:10;;;;;;;90.25;10.48;;;13.50;90.20;;;;;;5071057;28;20044;-54
2023/11/07 12:14:55;;;;;;;49.22;8.30;;;13.50;90.10;;;;;;5076494;28;20032;-54
2023/11/07 12:17:21;;;;;;;63.97;7.65;;;13.50;90.00;;;;;;5080140;28;20034;-51
2023/11/07 12:19:47;;;;;;;55.80;7.47;;;13.60;89.80;;;;;;5093384;28;20097;-54
2023/11/07 12:22:14;;;;;;;45.42;5.95;;;13.60;89.70;;;;;;5079426;28;20041;-54
2023/11/07 12:24:39;;;;;;;38.45;5.05;;;13.50;89.40;;;;;;5054620;28;20024;-54
2023/11/07 12:27:05;;;;;;;32.83;5.57;;;13.60;89.20;;;;;;5055563;28;20056;-53
2023/11/07 12:29:31;;;;;;;42.13;5.57;;;13.60;89.10;;;;;;5082510;28;20081;-54
2023/11/07 12:31:56;;;;;;;38.35;5.63;;;13.60;89.10;;;;;;5077542;28;20024;-54
2023/11/07 12:34:34;;;;;;;41.97;4.63;;;13.60;88.70;;;;;;5092514;28;20016;-54
2023/11/07 12:37:07;;;;;;;28.88;4.45;;;13.50;88.60;;;;;;5080926;28;20047;-54
2023/11/07 12:39:33;;;;;;;27.42;4.00;;;13.50;88.50;;;;;;5083011;28;20035;-54